createdAt,value
2022-12-03T00:01:29.144Z,97648.59
2022-12-03T00:03:37.928Z,97659.03
2022-12-03T00:06:14.967Z,97647.78
2022-12-03T00:08:25.942Z,97649.41
2022-12-03T00:10:36.652Z,97644.97
2022-12-03T00:12:45.086Z,97644.03
2022-12-03T00:14:53.894Z,97659.63
2022-12-03T00:17:02.220Z,97655.31
2022-12-03T00:19:10.438Z,97649.06
2022-12-03T00:21:19.553Z,97655.88
2022-12-03T00:23:27.551Z,97650.69
2022-12-03T00:25:38.430Z,97646.56
2022-12-03T00:27:47.123Z,97650.84
2022-12-03T00:29:55.385Z,97658.84
2022-12-03T00:32:03.849Z,97658.63
2022-12-03T00:34:12.374Z,97661.91
2022-12-03T00:36:22.637Z,97667.84
2022-12-03T00:38:30.656Z,97663.16
2022-12-03T00:40:41.630Z,97659.03
2022-12-03T00:42:49.500Z,97661.81
2022-12-03T00:44:58.446Z,97659.13
2022-12-03T00:47:07.245Z,97659.13
2022-12-03T00:49:15.650Z,97656.00
2022-12-03T00:51:24.145Z,97655.94
2022-12-03T00:53:32.186Z,97657.66
2022-12-03T00:55:43.041Z,97652.38
2022-12-03T00:57:51.199Z,97657.63
2022-12-03T00:59:59.050Z,97662.03
2022-12-03T01:02:07.514Z,97653.63
2022-12-03T01:04:15.895Z,97657.22
2022-12-03T01:06:24.354Z,97653.53
2022-12-03T01:08:34.072Z,97654.16
2022-12-03T01:10:45.161Z,97651.69
2022-12-03T01:12:53.708Z,97650.00
2022-12-03T01:15:03.335Z,97646.31
2022-12-03T01:17:12.561Z,97652.88
2022-12-03T01:19:22.407Z,97649.75
2022-12-03T01:21:30.455Z,97654.09
2022-12-03T01:23:38.823Z,97650.19
2022-12-03T01:25:49.740Z,97644.63
2022-12-03T01:27:58.083Z,97651.53
2022-12-03T01:30:11.039Z,97656.19
2022-12-03T01:32:19.722Z,97661.88
2022-12-03T01:34:28.226Z,97661.16
2022-12-03T01:36:38.501Z,97664.13
2022-12-03T01:38:48.766Z,97655.84
2022-12-03T01:41:00.125Z,97653.03
2022-12-03T01:43:08.524Z,97657.91
2022-12-03T01:45:27.408Z,97654.47
2022-12-03T01:47:38.870Z,97650.41
2022-12-03T01:49:49.872Z,97650.47
2022-12-03T01:51:59.407Z,97646.91
2022-12-03T01:54:07.736Z,97650.53
2022-12-03T01:56:20.629Z,97651.09
2022-12-03T01:58:33.463Z,97653.03
2022-12-03T02:00:42.136Z,97645.31
2022-12-03T02:02:53.700Z,97646.16
2022-12-03T02:05:03.785Z,97641.59
2022-12-03T02:07:27.806Z,97645.94
2022-12-03T02:09:36.028Z,97642.59
2022-12-03T02:11:50.380Z,97642.81
2022-12-03T02:14:03.062Z,97638.22
2022-12-03T02:16:12.937Z,97643.53
2022-12-03T02:18:21.781Z,97635.06
2022-12-03T02:20:29.884Z,97631.19
2022-12-03T02:22:44.206Z,97636.00
2022-12-03T02:24:58.113Z,97636.06
2022-12-03T02:27:09.426Z,97640.44
2022-12-03T02:29:17.734Z,97624.06
2022-12-03T02:31:26.560Z,97630.75
2022-12-03T02:33:35.179Z,97635.06
2022-12-03T02:35:43.650Z,97641.09
2022-12-03T02:37:54.483Z,97637.66
2022-12-03T02:40:06.344Z,97641.47
2022-12-03T02:42:29.530Z,97637.28
2022-12-03T02:44:39.516Z,97643.47
2022-12-03T02:46:48.827Z,97656.09
2022-12-03T02:48:57.187Z,97660.09
2022-12-03T02:51:08.915Z,97649.44
2022-12-03T02:53:22.046Z,97653.97
2022-12-03T02:55:37.360Z,97660.84
2022-12-03T02:57:51.225Z,97653.97
2022-12-03T02:59:59.535Z,97660.25
2022-12-03T03:02:08.387Z,97651.66
2022-12-03T03:04:17.882Z,97655.13
2022-12-03T03:06:26.288Z,97653.13
2022-12-03T03:08:37.043Z,97655.97
2022-12-03T03:10:46.639Z,97658.75
2022-12-03T03:12:58.692Z,97655.19
2022-12-03T03:15:08.260Z,97653.34
2022-12-03T03:17:16.697Z,97661.44
2022-12-03T03:19:26.079Z,97651.75
2022-12-03T03:21:34.890Z,97649.97
2022-12-03T03:23:44.333Z,97653.41
2022-12-03T03:25:56.890Z,97653.72
2022-12-03T03:28:08.769Z,97642.94
2022-12-03T03:30:18.349Z,97644.69
2022-12-03T03:32:27.018Z,97634.91
2022-12-03T03:34:36.195Z,97634.13
2022-12-03T03:36:44.527Z,97640.88
2022-12-03T03:38:52.901Z,97642.78
2022-12-03T03:41:03.262Z,97642.09
2022-12-03T03:43:15.072Z,97646.19
2022-12-03T03:45:28.689Z,97644.31
2022-12-03T03:47:37.365Z,97642.25
2022-12-03T03:49:48.121Z,97645.25
2022-12-03T03:51:56.610Z,97644.34
2022-12-03T03:54:07.085Z,97647.03
2022-12-03T03:56:15.321Z,97642.56
2022-12-03T03:58:26.123Z,97640.28
2022-12-03T04:00:35.063Z,97635.84
2022-12-03T04:02:44.222Z,97625.34
2022-12-03T04:04:53.525Z,97633.06
2022-12-03T04:07:03.561Z,97626.50
2022-12-03T04:09:11.646Z,97625.56
2022-12-03T04:11:31.904Z,97631.06
2022-12-03T04:13:42.631Z,97634.53
2022-12-03T04:15:51.642Z,97633.78
2022-12-03T04:18:12.157Z,97638.59
2022-12-03T04:20:22.673Z,97642.34
2022-12-03T04:22:40.248Z,97639.03
2022-12-03T04:24:48.457Z,97650.75
2022-12-03T04:27:08.664Z,97651.59
2022-12-03T04:29:18.447Z,97650.44
2022-12-03T04:31:42.120Z,97639.56
2022-12-03T04:34:02.392Z,97641.78
2022-12-03T04:36:10.926Z,97633.06
2022-12-03T04:38:19.223Z,97633.81
2022-12-03T04:40:45.152Z,97632.78
2022-12-03T04:42:53.706Z,97635.44
2022-12-03T04:45:05.671Z,97634.38
2022-12-03T04:47:15.833Z,97632.50
2022-12-03T04:49:25.250Z,97632.78
2022-12-03T04:51:34.172Z,97636.09
2022-12-03T04:53:46.172Z,97635.34
2022-12-03T04:55:55.671Z,97642.19
2022-12-03T04:58:06.443Z,97643.84
2022-12-03T05:00:19.981Z,97650.75
2022-12-03T05:02:28.235Z,97655.53
2022-12-03T05:04:37.414Z,97652.44
2022-12-03T05:06:42.952Z,97644.56
2022-12-03T05:08:51.358Z,97645.53
2022-12-03T05:10:59.591Z,97642.16
2022-12-03T05:13:07.872Z,97645.16
2022-12-03T05:15:22.232Z,97649.72
2022-12-03T05:17:30.735Z,97644.34
2022-12-03T05:19:51.276Z,97638.06
2022-12-03T05:21:59.676Z,97635.72
2022-12-03T05:24:08.894Z,97641.31
2022-12-03T05:26:16.815Z,97634.75
2022-12-03T05:28:25.904Z,97644.72
2022-12-03T05:30:37.484Z,97633.59
2022-12-03T05:32:45.812Z,97625.97
2022-12-03T05:34:57.857Z,97617.16
2022-12-03T05:37:06.070Z,97612.69
2022-12-03T05:39:14.727Z,97614.66
2022-12-03T05:41:36.050Z,97617.41
2022-12-03T05:43:45.284Z,97623.25
2022-12-03T05:45:59.917Z,97616.53
2022-12-03T05:48:13.866Z,97609.13
2022-12-03T05:50:22.918Z,97611.59
2022-12-03T05:52:31.694Z,97625.28
2022-12-03T05:54:41.338Z,97624.47
2022-12-03T05:56:52.408Z,97628.91
2022-12-03T05:59:02.971Z,97621.84
2022-12-03T06:01:13.738Z,97632.19
2022-12-03T06:03:22.162Z,97638.53
2022-12-03T06:05:30.783Z,97639.53
2022-12-03T06:07:39.018Z,97634.28
2022-12-03T06:09:47.578Z,97635.47
2022-12-03T06:11:55.933Z,97620.88
2022-12-03T06:14:04.242Z,97611.97
2022-12-03T06:16:15.264Z,97626.94
2022-12-03T06:18:23.460Z,97624.38
2022-12-03T06:20:32.324Z,97621.78
2022-12-03T06:22:41.476Z,97629.50
2022-12-03T06:24:56.006Z,97634.13
2022-12-03T06:27:05.418Z,97626.94
2022-12-03T06:29:13.362Z,97629.13
2022-12-03T06:31:24.533Z,97632.78
2022-12-03T06:33:35.579Z,97633.81
2022-12-03T06:35:43.585Z,97634.44
2022-12-03T06:37:52.720Z,97639.75
2022-12-03T06:40:27.061Z,97636.84
2022-12-03T06:42:35.726Z,97648.59
2022-12-03T06:44:43.714Z,97656.09
2022-12-03T06:46:54.272Z,97657.94
2022-12-03T06:49:03.275Z,97654.22
2022-12-03T06:51:11.153Z,97651.22
2022-12-03T06:53:19.297Z,97648.59
2022-12-03T06:55:27.548Z,97657.75
2022-12-03T06:57:37.523Z,97651.69
2022-12-03T06:59:45.661Z,97645.19
2022-12-03T07:01:58.853Z,97634.75
2022-12-03T07:04:10.106Z,97629.50
2022-12-03T07:06:18.713Z,97640.00
2022-12-03T07:08:26.846Z,97634.75
2022-12-03T07:10:37.235Z,97630.34
2022-12-03T07:12:47.678Z,97629.44
2022-12-03T07:14:55.952Z,97630.44
2022-12-03T07:17:07.390Z,97627.44
2022-12-03T07:19:15.790Z,97636.00
2022-12-03T07:21:24.093Z,97640.31
2022-12-03T07:23:33.401Z,97635.78
2022-12-03T07:25:41.408Z,97637.53
2022-12-03T07:27:49.299Z,97635.94
2022-12-03T07:29:57.156Z,97637.63
2022-12-03T07:32:08.356Z,97631.53
2022-12-03T07:34:16.541Z,97629.66
2022-12-03T07:36:24.665Z,97634.97
2022-12-03T07:38:32.704Z,97633.00
2022-12-03T07:40:40.520Z,97633.47
2022-12-03T07:42:48.730Z,97620.72
2022-12-03T07:44:56.811Z,97630.50
2022-12-03T07:47:07.681Z,97632.03
2022-12-03T07:49:16.540Z,97633.75
2022-12-03T07:51:31.803Z,97638.94
2022-12-03T07:53:40.341Z,97639.06
2022-12-03T07:55:48.205Z,97641.94
2022-12-03T07:57:56.181Z,97640.38
2022-12-03T08:00:05.495Z,97640.88
2022-12-03T08:02:21.265Z,97643.66
2022-12-03T08:04:30.170Z,97628.03
2022-12-03T08:06:38.842Z,97636.69
2022-12-03T08:08:47.821Z,97640.06
2022-12-03T08:10:55.758Z,97648.81
2022-12-03T08:13:03.593Z,97647.47
2022-12-03T08:15:18.184Z,97645.06
2022-12-03T08:17:30.151Z,97638.91
2022-12-03T08:19:39.128Z,97637.06
2022-12-03T08:21:47.712Z,97641.53
2022-12-03T08:23:55.863Z,97637.97
2022-12-03T08:26:16.587Z,97645.91
2022-12-03T08:28:32.511Z,97642.25
2022-12-03T08:30:40.693Z,97644.22
2022-12-03T08:32:52.057Z,97638.91
2022-12-03T08:35:00.266Z,97641.06
2022-12-03T08:37:18.224Z,97638.66
2022-12-03T08:39:33.745Z,97635.72
2022-12-03T08:41:54.155Z,97634.31
2022-12-03T08:44:02.099Z,97641.03
2022-12-03T08:46:16.632Z,97637.78
2022-12-03T08:48:32.656Z,97639.72
2022-12-03T08:50:43.522Z,97632.69
2022-12-03T08:52:51.745Z,97634.47
2022-12-03T08:55:00.977Z,97623.06
2022-12-03T08:57:30.806Z,97633.84
2022-12-03T08:59:42.677Z,97628.59
2022-12-03T09:01:55.281Z,97638.34
2022-12-03T09:04:29.276Z,97640.91
2022-12-03T09:06:37.514Z,97646.44
2022-12-03T09:08:45.442Z,97638.66
2022-12-03T09:11:00.121Z,97645.56
2022-12-03T09:13:09.619Z,97647.31
2022-12-03T09:15:18.555Z,97640.31
2022-12-03T09:17:26.807Z,97644.34
2022-12-03T09:19:44.336Z,97649.00
2022-12-03T09:21:54.111Z,97647.94
2022-12-03T09:24:02.511Z,97651.69
2022-12-03T09:26:10.903Z,97653.59
2022-12-03T09:28:19.047Z,97652.53
2022-12-03T09:30:27.224Z,97652.69
2022-12-03T09:32:35.925Z,97645.88
2022-12-03T09:34:46.850Z,97636.94
2022-12-03T09:36:55.821Z,97645.47
2022-12-03T09:39:04.816Z,97641.84
2022-12-03T09:41:12.755Z,97636.47
2022-12-03T09:43:21.783Z,97639.63
2022-12-03T09:45:29.763Z,97640.78
2022-12-03T09:47:38.354Z,97645.97
2022-12-03T09:49:49.288Z,97643.47
2022-12-03T09:52:01.158Z,97637.66
2022-12-03T09:54:10.082Z,97637.38
2022-12-03T09:56:23.289Z,97638.34
2022-12-03T09:58:34.918Z,97645.16
2022-12-03T10:00:45.028Z,97645.81
2022-12-03T10:02:56.628Z,97648.00
2022-12-03T10:05:07.733Z,97649.78
2022-12-03T10:07:16.207Z,97653.53
2022-12-03T10:09:28.820Z,97659.63
2022-12-03T10:11:38.610Z,97662.72
2022-12-03T10:13:47.389Z,97660.53
2022-12-03T10:15:56.925Z,97658.78
2022-12-03T10:18:19.038Z,97651.97
2022-12-03T10:20:30.000Z,97655.84
2022-12-03T10:22:37.746Z,97648.38
2022-12-03T10:24:45.570Z,97640.34
2022-12-03T10:26:55.343Z,97629.50
2022-12-03T10:29:03.282Z,97632.84
2022-12-03T10:31:13.707Z,97632.03
2022-12-03T10:33:21.747Z,97627.94
2022-12-03T10:35:41.246Z,97619.94
2022-12-03T10:38:07.409Z,97621.91
2022-12-03T10:40:16.632Z,97626.25
2022-12-03T10:42:24.998Z,97626.44
2022-12-03T10:44:33.449Z,97621.00
2022-12-03T10:46:42.617Z,97623.69
2022-12-03T10:49:12.191Z,97610.94
2022-12-03T10:51:25.637Z,97609.88
2022-12-03T10:53:35.695Z,97609.00
2022-12-03T10:55:46.310Z,97604.81
2022-12-03T10:57:54.827Z,97592.66
2022-12-03T11:00:03.798Z,97593.97
2022-12-03T11:02:22.015Z,97599.22
2022-12-03T11:04:35.997Z,97594.13
2022-12-03T11:06:46.934Z,97594.84
2022-12-03T11:09:01.425Z,97580.81
2022-12-03T11:11:20.619Z,97581.38
2022-12-03T11:13:56.178Z,97583.91
2022-12-03T11:16:05.517Z,97584.38
2022-12-03T11:18:13.385Z,97579.53
2022-12-03T11:20:53.680Z,97583.78
2022-12-03T11:23:04.252Z,97585.88
2022-12-03T11:25:51.262Z,97581.56
2022-12-03T11:28:34.705Z,97581.94
2022-12-03T11:31:02.418Z,97576.34
2022-12-03T11:33:24.718Z,97578.28
2022-12-03T11:35:56.211Z,97577.22
2022-12-03T11:38:58.453Z,97572.53
2022-12-03T11:41:15.298Z,97569.69
2022-12-03T11:43:53.291Z,97572.53
2022-12-03T11:46:11.645Z,97560.53
2022-12-03T11:48:21.599Z,97563.72
2022-12-03T11:50:39.781Z,97555.34
2022-12-03T11:52:50.241Z,97551.19
2022-12-03T11:55:05.370Z,97552.06
2022-12-03T11:57:31.716Z,97540.41
2022-12-03T11:59:59.620Z,97542.28
2022-12-03T12:02:22.811Z,97546.50
2022-12-03T12:04:35.251Z,97548.56
2022-12-03T12:06:53.020Z,97541.63
2022-12-03T12:09:04.046Z,97531.91
2022-12-03T12:11:24.520Z,97528.53
2022-12-03T12:13:57.590Z,97528.31
2022-12-03T12:16:09.511Z,97528.38
2022-12-03T12:18:42.319Z,97520.50
2022-12-03T12:20:50.074Z,97518.88
2022-12-03T12:22:58.719Z,97517.41
2022-12-03T12:25:09.823Z,97521.94
2022-12-03T12:27:22.910Z,97527.25
2022-12-03T12:29:33.803Z,97519.94
2022-12-03T12:31:41.736Z,97516.69
2022-12-03T12:33:49.811Z,97520.25
2022-12-03T12:35:57.939Z,97512.31
2022-12-03T12:38:19.097Z,97511.75
2022-12-03T12:40:29.105Z,97506.94
2022-12-03T12:42:41.087Z,97508.50
2022-12-03T12:44:50.009Z,97504.25
2022-12-03T12:47:15.261Z,97503.72
2022-12-03T12:49:26.954Z,97497.16
2022-12-03T12:51:34.916Z,97496.72
2022-12-03T12:53:44.675Z,97488.72
2022-12-03T12:55:57.363Z,97478.84
2022-12-03T12:58:14.813Z,97479.63
2022-12-03T13:00:25.346Z,97484.22
2022-12-03T13:02:45.983Z,97475.75
2022-12-03T13:04:53.901Z,97476.72
2022-12-03T13:07:02.767Z,97478.69
2022-12-03T13:09:17.757Z,97475.06
2022-12-03T13:11:41.448Z,97478.53
2022-12-03T13:13:53.421Z,97479.53
2022-12-03T13:16:14.874Z,97482.13
2022-12-03T13:18:27.813Z,97478.66
2022-12-03T13:20:38.397Z,97480.50
2022-12-03T13:22:49.061Z,97483.06
2022-12-03T13:25:01.151Z,97484.13
2022-12-03T13:27:25.955Z,97486.34
2022-12-03T13:29:37.856Z,97491.22
2022-12-03T13:31:52.477Z,97477.50
2022-12-03T13:34:03.603Z,97477.50
2022-12-03T13:36:16.798Z,97476.47
2022-12-03T13:38:26.364Z,97466.84
2022-12-03T13:40:37.791Z,97475.56
2022-12-03T13:42:46.899Z,97478.25
2022-12-03T13:44:57.947Z,97476.28
2022-12-03T13:47:16.574Z,97472.75
2022-12-03T13:49:36.143Z,97474.56
2022-12-03T13:51:45.557Z,97479.91
2022-12-03T13:53:53.694Z,97487.63
2022-12-03T13:56:15.116Z,97476.28
2022-12-03T13:58:23.337Z,97481.72
2022-12-03T14:00:34.237Z,97471.19
2022-12-03T14:02:43.718Z,97476.53
2022-12-03T14:04:58.404Z,97476.00
2022-12-03T14:07:08.344Z,97477.63
2022-12-03T14:09:18.551Z,97470.78
2022-12-03T14:11:40.178Z,97470.25
2022-12-03T14:13:49.864Z,97460.56
2022-12-03T14:16:00.736Z,97464.09
2022-12-03T14:18:08.769Z,97466.72
2022-12-03T14:20:19.270Z,97463.09
2022-12-03T14:22:33.678Z,97460.63
2022-12-03T14:24:43.730Z,97461.63
2022-12-03T14:26:51.728Z,97459.88
2022-12-03T14:29:03.399Z,97461.53
2022-12-03T14:31:16.735Z,97467.63
2022-12-03T14:33:27.449Z,97470.41
2022-12-03T14:35:35.503Z,97467.88
2022-12-03T14:37:47.935Z,97475.44
2022-12-03T14:39:57.512Z,97478.25
2022-12-03T14:42:14.196Z,97485.13
2022-12-03T14:44:31.335Z,97476.44
2022-12-03T14:46:42.135Z,97485.13
2022-12-03T14:48:56.338Z,97488.59
2022-12-03T14:51:05.206Z,97477.13
2022-12-03T14:53:15.789Z,97484.09
2022-12-03T14:55:24.398Z,97486.63
2022-12-03T14:57:33.935Z,97481.47
2022-12-03T14:59:59.999Z,97484.56
2022-12-03T15:02:12.567Z,97486.50
2022-12-03T15:04:21.625Z,97483.00
2022-12-03T15:06:29.987Z,97473.25
2022-12-03T15:08:38.193Z,97480.03
2022-12-03T15:10:46.229Z,97470.53
2022-12-03T15:12:58.659Z,97474.88
2022-12-03T15:15:09.617Z,97476.00
2022-12-03T15:17:29.540Z,97476.19
2022-12-03T15:19:44.948Z,97466.66
2022-12-03T15:21:55.792Z,97467.50
2022-12-03T15:24:03.796Z,97469.97
2022-12-03T15:26:11.969Z,97475.00
2022-12-03T15:28:23.346Z,97475.88
2022-12-03T15:30:35.216Z,97472.34
2022-12-03T15:32:46.804Z,97482.66
2022-12-03T15:34:55.448Z,97484.56
2022-12-03T15:37:05.089Z,97486.19
2022-12-03T15:39:14.014Z,97491.38
2022-12-03T15:41:32.355Z,97480.72
2022-12-03T15:43:41.971Z,97471.22
2022-12-03T15:45:50.535Z,97471.19
2022-12-03T15:48:01.472Z,97474.44
2022-12-03T15:50:12.176Z,97475.47
2022-12-03T15:52:23.418Z,97469.41
2022-12-03T15:54:32.978Z,97468.66
2022-12-03T15:56:42.447Z,97477.41
2022-12-03T15:58:50.788Z,97478.97
2022-12-03T16:01:00.143Z,97472.31
2022-12-03T16:03:11.706Z,97461.03
2022-12-03T16:05:21.153Z,97469.63
2022-12-03T16:07:29.559Z,97458.84
2022-12-03T16:09:39.057Z,97466.72
2022-12-03T16:11:48.163Z,97460.34
2022-12-03T16:13:58.178Z,97462.56
2022-12-03T16:16:06.808Z,97467.56
2022-12-03T16:18:18.112Z,97457.50
2022-12-03T16:20:26.580Z,97460.91
2022-12-03T16:22:35.031Z,97460.78
2022-12-03T16:24:44.880Z,97460.97
2022-12-03T16:27:03.980Z,97459.94
2022-12-03T16:29:12.967Z,97456.47
2022-12-03T16:31:22.143Z,97460.47
2022-12-03T16:33:35.645Z,97461.16
2022-12-03T16:35:46.403Z,97459.91
2022-12-03T16:37:55.467Z,97465.88
2022-12-03T16:40:07.475Z,97455.38
2022-12-03T16:42:17.534Z,97456.13
2022-12-03T16:44:43.975Z,97456.75
2022-12-03T16:46:52.357Z,97458.16
2022-12-03T16:49:04.249Z,97457.94
2022-12-03T16:51:13.799Z,97465.50
2022-12-03T16:53:22.520Z,97462.47
2022-12-03T16:55:31.028Z,97468.34
2022-12-03T16:57:39.677Z,97471.63
2022-12-03T16:59:48.519Z,97460.56
2022-12-03T17:01:58.579Z,97452.91
2022-12-03T17:04:10.498Z,97450.16
2022-12-03T17:06:19.470Z,97448.47
2022-12-03T17:08:31.332Z,97446.69
2022-12-03T17:10:40.506Z,97441.72
2022-12-03T17:13:08.872Z,97434.72
2022-12-03T17:15:20.554Z,97425.16
2022-12-03T17:17:29.064Z,97433.16
2022-12-03T17:19:40.204Z,97430.06
2022-12-03T17:21:49.553Z,97421.34
2022-12-03T17:23:58.537Z,97424.78
2022-12-03T17:26:07.561Z,97419.56
2022-12-03T17:28:16.197Z,97427.09
2022-12-03T17:30:26.845Z,97421.31
2022-12-03T17:32:36.508Z,97415.19
2022-12-03T17:34:48.524Z,97416.09
2022-12-03T17:36:58.390Z,97416.75
2022-12-03T17:39:06.958Z,97427.22
2022-12-03T17:41:17.542Z,97420.00
2022-12-03T17:43:25.771Z,97422.06
2022-12-03T17:45:37.080Z,97422.06
2022-12-03T17:47:46.451Z,97418.59
2022-12-03T17:49:57.800Z,97422.03
2022-12-03T17:52:06.103Z,97417.75
2022-12-03T17:54:14.789Z,97420.50
2022-12-03T17:56:23.001Z,97423.81
2022-12-03T17:58:32.633Z,97418.53
2022-12-03T18:00:43.239Z,97409.81
2022-12-03T18:02:53.447Z,97410.84
2022-12-03T18:05:04.569Z,97411.44
2022-12-03T18:07:13.118Z,97407.19
2022-12-03T18:09:21.206Z,97407.28
2022-12-03T18:11:30.697Z,97413.22
2022-12-03T18:13:39.368Z,97410.69
2022-12-03T18:15:48.094Z,97406.22
2022-12-03T18:17:58.312Z,97403.59
2022-12-03T18:20:12.751Z,97413.84
2022-12-03T18:22:21.311Z,97406.16
2022-12-03T18:24:29.770Z,97405.44
2022-12-03T18:26:39.100Z,97406.69
2022-12-03T18:28:53.497Z,97400.63
2022-12-03T18:31:05.059Z,97403.09
2022-12-03T18:33:14.093Z,97395.28
2022-12-03T18:35:25.376Z,97403.28
2022-12-03T18:37:35.423Z,97396.22
2022-12-03T18:39:48.725Z,97399.56
2022-12-03T18:41:58.273Z,97401.41
2022-12-03T18:44:13.868Z,97401.38
2022-12-03T18:46:52.303Z,97396.03
2022-12-03T18:49:00.344Z,97401.47
2022-12-03T18:51:16.447Z,97400.53
2022-12-03T18:53:25.253Z,97408.38
2022-12-03T18:55:40.857Z,97405.66
2022-12-03T18:57:49.472Z,97409.97
2022-12-03T18:59:58.812Z,97403.28
2022-12-03T19:02:08.345Z,97413.56
2022-12-03T19:04:20.795Z,97406.63
2022-12-03T19:06:31.384Z,97398.00
2022-12-03T19:08:39.819Z,97395.88
2022-12-03T19:11:03.382Z,97394.19
2022-12-03T19:13:13.633Z,97395.25
2022-12-03T19:15:22.215Z,97395.94
2022-12-03T19:17:31.282Z,97410.75
2022-12-03T19:19:42.980Z,97411.72
2022-12-03T19:21:55.365Z,97407.28
2022-12-03T19:24:23.887Z,97407.19
2022-12-03T19:26:35.510Z,97408.13
2022-12-03T19:28:44.262Z,97398.50
2022-12-03T19:30:59.859Z,97404.31
2022-12-03T19:33:12.736Z,97399.06
2022-12-03T19:35:24.342Z,97394.84
2022-12-03T19:37:36.887Z,97396.50
2022-12-03T19:39:45.054Z,97398.31
2022-12-03T19:41:53.480Z,97391.34
2022-12-03T19:44:06.345Z,97392.84
2022-12-03T19:46:17.735Z,97390.63
2022-12-03T19:48:27.124Z,97387.75
2022-12-03T19:50:35.151Z,97398.13
2022-12-03T19:52:52.691Z,97388.59
2022-12-03T19:55:02.352Z,97391.28
2022-12-03T19:57:10.274Z,97385.06
2022-12-03T19:59:18.594Z,97386.94
2022-12-03T20:01:28.672Z,97392.97
2022-12-03T20:03:36.883Z,97397.41
2022-12-03T20:05:44.782Z,97393.94
2022-12-03T20:07:56.793Z,97397.41
2022-12-03T20:10:04.982Z,97392.00
2022-12-03T20:12:14.281Z,97389.38
2022-12-03T20:14:23.019Z,97385.84
2022-12-03T20:16:32.541Z,97385.13
2022-12-03T20:18:41.046Z,97386.91
2022-12-03T20:20:48.939Z,97383.50
2022-12-03T20:23:02.228Z,97381.53
2022-12-03T20:25:14.292Z,97386.63
2022-12-03T20:27:23.091Z,97395.59
2022-12-03T20:29:31.328Z,97394.41
2022-12-03T20:31:39.601Z,97383.22
2022-12-03T20:33:49.685Z,97379.91
2022-12-03T20:36:02.370Z,97374.31
2022-12-03T20:38:13.100Z,97374.59
2022-12-03T20:40:22.339Z,97386.28
2022-12-03T20:42:30.377Z,97383.00
2022-12-03T20:44:38.402Z,97370.19
2022-12-03T20:46:48.091Z,97371.69
2022-12-03T20:48:58.137Z,97378.91
2022-12-03T20:51:08.259Z,97384.22
2022-12-03T20:53:26.418Z,97380.75
2022-12-03T20:55:35.651Z,97379.97
2022-12-03T20:57:43.407Z,97364.28
2022-12-03T20:59:51.905Z,97371.28
2022-12-03T21:02:00.262Z,97363.28
2022-12-03T21:04:10.793Z,97358.34
2022-12-03T21:06:20.568Z,97352.31
2022-12-03T21:08:41.043Z,97361.72
2022-12-03T21:10:50.230Z,97361.88
2022-12-03T21:12:58.338Z,97359.03
2022-12-03T21:15:07.093Z,97364.19
2022-12-03T21:17:15.137Z,97359.16
2022-12-03T21:19:23.516Z,97353.91
2022-12-03T21:21:32.198Z,97356.53
2022-12-03T21:23:43.008Z,97362.41
2022-12-03T21:25:51.120Z,97366.94
2022-12-03T21:28:00.489Z,97357.25
2022-12-03T21:30:12.275Z,97357.31
2022-12-03T21:32:20.326Z,97351.38
2022-12-03T21:34:35.594Z,97354.72
2022-12-03T21:36:44.384Z,97339.00
2022-12-03T21:38:56.012Z,97340.69
2022-12-03T21:41:06.239Z,97342.19
2022-12-03T21:43:14.370Z,97342.34
2022-12-03T21:45:25.393Z,97348.22
2022-12-03T21:47:37.323Z,97356.88
2022-12-03T21:49:46.886Z,97350.03
2022-12-03T21:51:55.376Z,97342.25
2022-12-03T21:54:06.702Z,97344.00
2022-12-03T21:56:19.175Z,97342.28
2022-12-03T21:58:27.827Z,97339.41
2022-12-03T22:00:36.115Z,97346.56
2022-12-03T22:02:44.654Z,97346.78
2022-12-03T22:04:53.345Z,97346.41
2022-12-03T22:07:01.219Z,97340.47
2022-12-03T22:09:12.326Z,97343.16
2022-12-03T22:11:22.346Z,97334.31
2022-12-03T22:13:30.598Z,97334.25
2022-12-03T22:15:41.514Z,97331.47
2022-12-03T22:17:49.476Z,97334.13
2022-12-03T22:19:58.088Z,97331.47
2022-12-03T22:22:05.980Z,97323.75
2022-12-03T22:24:18.520Z,97327.81
2022-12-03T22:26:26.853Z,97316.59
2022-12-03T22:28:35.993Z,97324.25
2022-12-03T22:30:44.389Z,97321.78
2022-12-03T22:32:52.593Z,97315.22
2022-12-03T22:35:00.661Z,97324.84
2022-12-03T22:37:08.800Z,97332.56
2022-12-03T22:39:20.066Z,97328.94
2022-12-03T22:41:28.209Z,97327.94
2022-12-03T22:43:37.241Z,97321.00
2022-12-03T22:45:45.274Z,97323.50
2022-12-03T22:47:53.245Z,97328.66
2022-12-03T22:50:01.325Z,97317.94
2022-12-03T22:52:09.634Z,97323.56
2022-12-03T22:54:24.120Z,97316.19
2022-12-03T22:56:34.553Z,97312.94
2022-12-03T22:58:43.650Z,97307.63
2022-12-03T23:00:52.550Z,97311.09
2022-12-03T23:03:00.611Z,97299.06
2022-12-03T23:05:11.343Z,97298.44
2022-12-03T23:07:19.372Z,97289.66
2022-12-03T23:09:30.148Z,97293.06
2022-12-03T23:11:40.228Z,97298.78
2022-12-03T23:13:49.169Z,97308.47
2022-12-03T23:15:57.412Z,97304.09
2022-12-03T23:18:05.426Z,97300.69
2022-12-03T23:20:14.788Z,97292.97
2022-12-03T23:22:23.058Z,97295.81
2022-12-03T23:24:34.054Z,97293.22
2022-12-03T23:26:43.213Z,97292.38
2022-12-03T23:28:51.576Z,97284.53
2022-12-03T23:31:01.492Z,97277.81
2022-12-03T23:33:11.225Z,97280.50
2022-12-03T23:35:19.550Z,97270.78
2022-12-03T23:37:27.795Z,97263.00
2022-12-03T23:39:38.480Z,97268.94
2022-12-03T23:41:46.903Z,97265.13
2022-12-03T23:43:56.506Z,97273.81
2022-12-03T23:46:09.670Z,97280.03
2022-12-03T23:48:17.778Z,97281.66
2022-12-03T23:50:25.896Z,97284.50
2022-12-03T23:52:34.214Z,97275.78
2022-12-03T23:54:45.102Z,97278.44
2022-12-03T23:56:53.868Z,97265.31
2022-12-03T23:59:03.398Z,97273.25
